Time;durP1;ratioP1;P1;durP2;ratioP2;P2;SDS_P1;SDS_P2;PMS_P1;PMS_P2;Temp;Humidity;BMP_temperature;BMP_pressure;BME280_temperature;BME280_humidity;BME280_pressure;Samples;Min_cycle;Max_cycle;Signal;HPM_P1;HPM_P2
2023/09/23 00:01:49;;;;;;;;;;;;;;;14.11;75.70;99125.50;4990335;28;2380;-76
2023/09/23 00:04:40;;;;;;;;;;;;;;;14.11;75.54;99122.00;4989381;28;2583;-76
2023/09/23 00:07:32;;;;;;;;;;;;;;;14.10;75.57;99115.78;4994573;28;2586;-76
2023/09/23 00:10:24;;;;;;;;;;;;;;;14.10;75.58;99115.78;4989206;28;2587;-76
2023/09/23 00:13:16;;;;;;;;;;;;;;;14.09;75.57;99125.81;4998121;28;2347;-76
2023/09/23 00:16:08;;;;;;;;;;;;;;;14.08;75.66;99116.03;5000078;28;2349;-76
2023/09/23 00:19:02;;;;;;;;;;;;;;;14.08;75.66;99118.75;5000264;28;1915;-76
2023/09/23 00:21:54;;;;;;;;;;;;;;;14.07;75.56;99109.03;4998382;28;2374;-76
2023/09/23 00:24:45;;;;;;;;;;;;;;;14.08;75.62;99109.81;5001393;28;1684;-76
2023/09/23 00:27:39;;;;;;;;;;;;;;;14.07;75.46;99114.44;4992403;28;2290;-76
2023/09/23 00:30:30;;;;;;;;;;;;;;;14.06;75.58;99114.72;4996667;28;2475;-76
2023/09/23 00:33:21;;;;;;;;;;;;;;;14.05;75.43;99115.78;5000374;28;2321;-76
2023/09/23 00:36:14;;;;;;;;;;;;;;;14.05;75.42;99121.22;4997905;28;1965;-75
2023/09/23 00:39:06;;;;;;;;;;;;;;;14.06;75.42;99117.44;4998397;28;2428;-75
2023/09/23 00:41:58;;;;;;;;;;;;;;;14.05;75.54;99113.09;4999624;28;1722;-76
2023/09/23 00:44:50;;;;;;;;;;;;;;;14.04;75.56;99108.78;4994851;28;1681;-75
2023/09/23 00:47:41;;;;;;;;;;;;;;;14.04;75.36;99125.81;4994466;28;2252;-75
2023/09/23 00:50:34;;;;;;;;;;;;;;;14.04;75.57;99116.91;5001683;28;2454;-75
2023/09/23 00:53:26;;;;;;;;;;;;;;;14.02;75.42;99119.88;5003178;28;1786;-75
2023/09/23 00:56:20;;;;;;;;;;;;;;;14.01;75.47;99118.25;5003931;28;1661;-76
2023/09/23 00:59:16;;;;;;;;;;;;;;;14.02;75.42;99116.34;5000684;28;2688;-76
2023/09/23 01:02:08;;;;;;;;;;;;;;;14.01;75.34;99117.44;4990395;28;2477;-76
2023/09/23 01:05:00;;;;;;;;;;;;;;;13.99;75.55;99125.84;4992781;28;2401;-77
2023/09/23 01:07:52;;;;;;;;;;;;;;;14.01;75.45;99126.38;4991265;28;2434;-76
2023/09/23 01:10:44;;;;;;;;;;;;;;;14.00;75.34;99130.19;4986314;28;2396;-76
2023/09/23 01:13:37;;;;;;;;;;;;;;;14.00;75.45;99129.34;4989316;28;2513;-76
2023/09/23 01:16:29;;;;;;;;;;;;;;;14.00;75.42;99137.47;4983518;28;2871;-76
2023/09/23 01:19:25;;;;;;;;;;;;;;;13.99;75.32;99133.16;4991545;28;2518;-77
2023/09/23 01:22:17;;;;;;;;;;;;;;;13.98;75.27;99131.53;4987019;28;2321;-77
2023/09/23 01:25:08;;;;;;;;;;;;;;;13.98;75.23;99136.94;4995279;28;2394;-76
2023/09/23 01:28:03;;;;;;;;;;;;;;;13.96;75.24;99134.50;4988566;28;2473;-77
2023/09/23 01:30:56;;;;;;;;;;;;;;;13.97;75.39;99132.59;4987952;28;2471;-77
2023/09/23 01:33:47;;;;;;;;;;;;;;;13.56;75.42;99076.75;4991384;28;2428;-77
2023/09/23 01:36:39;;;;;;;;;;;;;;;13.95;75.38;99135.59;4995515;28;2343;-77
2023/09/23 01:39:32;;;;;;;;;;;;;;;13.95;75.27;99140.22;4988398;28;2296;-75
2023/09/23 01:42:23;;;;;;;;;;;;;;;13.94;75.15;99138.56;4989003;28;2306;-75
2023/09/23 01:45:15;;;;;;;;;;;;;;;13.94;75.28;99141.28;4983813;28;2336;-75
2023/09/23 01:48:07;;;;;;;;;;;;;;;13.93;75.36;99147.78;4994817;28;2416;-76
2023/09/23 01:50:59;;;;;;;;;;;;;;;13.92;75.36;99152.41;4994610;28;2482;-75
2023/09/23 01:53:50;;;;;;;;;;;;;;;13.92;75.01;99155.09;5002206;28;2029;-75
2023/09/23 01:56:42;;;;;;;;;;;;;;;13.92;75.13;99148.88;4996127;28;2309;-75
2023/09/23 01:59:34;;;;;;;;;;;;;;;13.92;75.08;99154.28;4988869;28;2514;-75
2023/09/23 02:02:27;;;;;;;;;;;;;;;13.91;75.05;99158.06;4997213;28;1924;-75
2023/09/23 02:05:18;;;;;;;;;;;;;;;13.90;75.05;99154.56;4993614;28;2280;-75
2023/09/23 02:08:10;;;;;;;;;;;;;;;13.89;75.14;99163.78;5001836;28;2232;-76
2023/09/23 02:11:02;;;;;;;;;;;;;;;13.90;75.24;99164.56;4992045;28;2383;-77
2023/09/23 02:13:54;;;;;;;;;;;;;;;13.89;75.16;99168.38;4992710;28;2203;-77
2023/09/23 02:16:47;;;;;;;;;;;;;;;13.88;75.19;99161.31;4996214;28;2191;-75
2023/09/23 02:19:38;;;;;;;;;;;;;;;13.88;75.14;99166.75;4987525;28;2697;-77
2023/09/23 02:22:30;;;;;;;;;;;;;;;13.86;75.21;99165.13;4988194;28;2416;-75
2023/09/23 02:25:24;;;;;;;;;;;;;;;13.87;75.14;99165.94;4988777;28;2890;-76
2023/09/23 02:28:18;;;;;;;;;;;;;;;13.85;75.17;99170.81;4989776;28;2362;-75
2023/09/23 02:31:09;;;;;;;;;;;;;;;13.85;75.15;99170.81;4987896;28;2723;-76
2023/09/23 02:34:02;;;;;;;;;;;;;;;13.85;74.98;99173.50;4993453;28;2521;-75
2023/09/23 02:36:53;;;;;;;;;;;;;;;13.83;75.14;99168.38;4986489;28;2502;-76
2023/09/23 02:39:45;;;;;;;;;;;;;;;13.83;75.08;99164.88;4988334;28;2596;-75
2023/09/23 02:42:36;;;;;;;;;;;;;;;13.82;75.08;99165.94;4998890;28;2553;-76
2023/09/23 02:45:28;;;;;;;;;;;;;;;13.82;75.08;99166.78;4991079;28;2519;-74
2023/09/23 02:48:20;;;;;;;;;;;;;;;13.82;74.89;99160.53;4994668;28;2723;-75
2023/09/23 02:51:12;;;;;;;;;;;;;;;13.80;75.05;99160.00;4999927;28;1051;-75
2023/09/23 02:54:05;;;;;;;;;;;;;;;13.80;75.10;99162.72;4996788;28;2365;-75
2023/09/23 02:56:57;;;;;;;;;;;;;;;13.80;74.83;99160.81;5001192;28;1522;-75
2023/09/23 02:59:56;;;;;;;;;;;;;;;13.80;74.85;99166.22;5000171;28;2992;-75
2023/09/23 03:02:50;;;;;;;;;;;;;;;13.82;75.10;99168.66;5004287;28;2295;-75
2023/09/23 03:05:50;;;;;;;;;;;;;;;13.78;74.89;99159.47;4993744;28;2440;-75
2023/09/23 03:08:47;;;;;;;;;;;;;;;13.80;74.83;99168.13;4985045;28;2645;-76
2023/09/23 03:11:47;;;;;;;;;;;;;;;13.78;74.73;99171.09;4986217;28;2827;-76
2023/09/23 03:14:42;;;;;;;;;;;;;;;13.78;74.78;99165.69;4986662;28;2584;-75
2023/09/23 03:17:34;;;;;;;;;;;;;;;13.78;74.90;99173.81;4987710;28;2467;-76
2023/09/23 03:20:26;;;;;;;;;;;;;;;13.77;74.95;99163.28;4987295;28;2759;-75
2023/09/23 03:23:20;;;;;;;;;;;;;;;13.75;74.94;99177.06;4987307;28;2479;-75
2023/09/23 03:26:15;;;;;;;;;;;;;;;13.75;74.89;99173.53;4996048;28;2467;-75
2023/09/23 03:29:08;;;;;;;;;;;;;;;13.75;74.83;99178.94;4992416;28;2462;-74
2023/09/23 03:31:59;;;;;;;;;;;;;;;13.75;74.68;99176.25;4994174;28;2678;-75
2023/09/23 03:34:52;;;;;;;;;;;;;;;13.74;74.86;99182.75;4990914;28;2527;-75
2023/09/23 03:37:45;;;;;;;;;;;;;;;13.75;74.66;99181.66;4991829;28;2434;-74
2023/09/23 03:40:38;;;;;;;;;;;;;;;13.72;74.87;99183.00;4984685;28;2332;-77
2023/09/23 03:43:29;;;;;;;;;;;;;;;13.73;74.78;99189.22;4983657;28;2700;-76
2023/09/23 03:46:21;;;;;;;;;;;;;;;13.73;74.89;99191.94;4991289;28;2588;-73
2023/09/23 03:49:12;;;;;;;;;;;;;;;13.71;74.79;99192.22;4987795;28;2373;-77
2023/09/23 03:52:05;;;;;;;;;;;;;;;13.71;74.76;99197.63;4986770;28;2343;-75
2023/09/23 03:54:58;;;;;;;;;;;;;;;13.71;74.76;99196.84;4984302;28;2444;-77
2023/09/23 03:57:49;;;;;;;;;;;;;;;13.70;74.81;99206.00;4990382;28;2382;-77
2023/09/23 04:00:41;;;;;;;;;;;;;;;13.68;74.59;99208.16;4988490;28;2519;-76
2023/09/23 04:03:34;;;;;;;;;;;;;;;13.68;74.63;99209.00;4990094;28;2485;-75
2023/09/23 04:06:25;;;;;;;;;;;;;;;13.68;74.54;99216.28;5001753;28;2868;-76
2023/09/23 04:09:17;;;;;;;;;;;;;;;13.67;74.56;99226.31;4990473;28;2409;-75
2023/09/23 04:12:10;;;;;;;;;;;;;;;13.66;74.69;99227.41;4998167;28;2405;-75
2023/09/23 04:15:02;;;;;;;;;;;;;;;13.66;74.75;99221.97;4998286;28;2439;-77
2023/09/23 04:17:53;;;;;;;;;;;;;;;13.64;74.51;99227.66;5001471;28;2643;-76
2023/09/23 04:20:46;;;;;;;;;;;;;;;13.65;74.61;99236.59;4999122;28;1723;-75
2023/09/23 04:23:39;;;;;;;;;;;;;;;13.64;74.50;99251.19;5002314;28;1723;-74
2023/09/23 04:26:30;;;;;;;;;;;;;;;13.63;74.54;99242.28;4997367;28;1768;-75
2023/09/23 04:29:23;;;;;;;;;;;;;;;13.63;74.39;99244.97;5000994;28;2403;-75
2023/09/23 04:32:14;;;;;;;;;;;;;;;13.63;74.64;99253.09;4998876;28;2126;-76
2023/09/23 04:35:07;;;;;;;;;;;;;;;13.61;74.50;99249.84;4998029;28;2271;-77
2023/09/23 04:37:58;;;;;;;;;;;;;;;13.61;74.51;99251.75;5003876;28;2534;-76
2023/09/23 04:40:50;;;;;;;;;;;;;;;13.60;74.40;99248.22;5002299;28;1658;-75
2023/09/23 04:43:42;;;;;;;;;;;;;;;13.60;74.67;99256.34;5001284;28;2464;-75
2023/09/23 04:46:34;;;;;;;;;;;;;;;13.59;74.46;99260.16;4996180;28;2315;-75
2023/09/23 04:49:28;;;;;;;;;;;;;;;13.59;74.70;99270.16;4992663;28;2658;-75
2023/09/23 04:52:19;;;;;;;;;;;;;;;13.58;74.65;99269.31;4988506;28;2453;-76
2023/09/23 04:55:11;;;;;;;;;;;;;;;13.58;74.54;99277.44;4983831;28;4965;-76
2023/09/23 04:58:04;;;;;;;;;;;;;;;13.57;74.52;99266.91;4988042;28;2368;-76
2023/09/23 05:00:55;;;;;;;;;;;;;;;13.56;74.35;99268.78;4986564;28;2706;-76
2023/09/23 05:03:49;;;;;;;;;;;;;;;13.55;74.51;99272.56;4998426;28;2654;-76
2023/09/23 05:06:40;;;;;;;;;;;;;;;13.53;74.33;99272.03;4990973;28;2351;-75
2023/09/23 05:09:34;;;;;;;;;;;;;;;13.53;74.39;99277.44;4994316;28;2256;-76
2023/09/23 05:12:27;;;;;;;;;;;;;;;13.53;74.32;99280.16;4988524;28;2405;-77
2023/09/23 05:15:18;;;;;;;;;;;;;;;13.52;74.49;99281.22;4993196;28;2727;-76
2023/09/23 05:18:11;;;;;;;;;;;;;;;13.52;74.50;99278.50;4999706;28;2614;-76
2023/09/23 05:21:04;;;;;;;;;;;;;;;13.53;74.45;99279.31;4989548;28;4721;-75
2023/09/23 05:23:56;;;;;;;;;;;;;;;13.52;74.43;99281.22;4996161;28;4155;-77
2023/09/23 05:26:49;;;;;;;;;;;;;;;13.51;74.48;99287.72;4983328;28;5603;-75
2023/09/23 05:29:40;;;;;;;;;;;;;;;13.50;74.49;99299.63;4999718;28;3975;-75
2023/09/23 05:32:32;;;;;;;;;;;;;;;13.49;74.33;99299.88;4992676;28;3879;-75
2023/09/23 05:35:25;;;;;;;;;;;;;;;13.48;74.35;99300.97;4997639;28;2135;-75
2023/09/23 05:38:16;;;;;;;;;;;;;;;13.48;74.17;99309.91;4990851;28;2442;-75
2023/09/23 05:41:08;;;;;;;;;;;;;;;13.46;74.42;99303.94;4972458;28;3503;-76
2023/09/23 05:44:00;;;;;;;;;;;;;;;13.47;74.24;99315.56;4979680;28;2953;-76
2023/09/23 05:46:52;;;;;;;;;;;;;;;13.46;74.11;99328.28;4971017;28;3551;-76
2023/09/23 05:49:44;;;;;;;;;;;;;;;13.45;74.25;99323.97;4973602;28;2715;-77
2023/09/23 05:52:36;;;;;;;;;;;;;;;13.45;74.16;99333.97;4970681;28;4489;-75
2023/09/23 05:55:28;;;;;;;;;;;;;;;13.43;74.22;99334.22;5004398;28;2944;-75
2023/09/23 05:58:20;;;;;;;;;;;;;;;13.43;74.22;99336.94;4989041;28;3262;-74
2023/09/23 06:01:12;;;;;;;;;;;;;;;13.43;74.34;99346.94;4984800;28;2612;-75
2023/09/23 06:04:05;;;;;;;;;;;;;;;13.42;74.19;99348.84;4995155;28;2444;-74
2023/09/23 06:06:56;;;;;;;;;;;;;;;13.41;74.14;99349.91;4978295;28;4049;-76
2023/09/23 06:09:47;;;;;;;;;;;;;;;13.41;74.31;99349.91;4992245;28;2393;-74
2023/09/23 06:12:39;;;;;;;;;;;;;;;13.40;74.31;99357.19;4990264;28;2325;-75
2023/09/23 06:15:31;;;;;;;;;;;;;;;13.40;74.11;99364.50;4989368;28;2197;-75
2023/09/23 06:18:23;;;;;;;;;;;;;;;13.37;74.29;99352.34;4971055;28;2552;-76
2023/09/23 06:21:15;;;;;;;;;;;;;;;13.39;74.10;99360.19;4997269;28;2230;-76
2023/09/23 06:24:10;;;;;;;;;;;;;;;13.37;74.15;99365.84;4994205;28;2410;-75
2023/09/23 06:27:01;;;;;;;;;;;;;;;13.36;74.10;99369.66;4986062;28;2449;-75
2023/09/23 06:29:54;;;;;;;;;;;;;;;13.35;74.25;99369.91;4984590;28;2285;-76
2023/09/23 06:32:47;;;;;;;;;;;;;;;13.36;74.24;99379.66;4991891;28;2405;-75
2023/09/23 06:35:38;;;;;;;;;;;;;;;13.35;74.13;99375.31;4984518;28;2525;-76
2023/09/23 06:38:29;;;;;;;;;;;;;;;13.33;74.12;99372.06;4991525;28;2290;-76
2023/09/23 06:41:21;;;;;;;;;;;;;;;13.34;74.01;99373.69;4980391;28;2704;-75
2023/09/23 06:44:13;;;;;;;;;;;;;;;13.33;74.14;99374.78;4980228;28;2553;-76
2023/09/23 06:47:08;;;;;;;;;;;;;;;13.32;74.16;99382.06;4984247;28;2796;-75
2023/09/23 06:49:59;;;;;;;;;;;;;;;13.31;74.25;99380.44;4995754;28;2568;-74
2023/09/23 06:52:51;;;;;;;;;;;;;;;13.31;74.06;99385.84;4986185;28;2495;-76
2023/09/23 06:55:43;;;;;;;;;;;;;;;13.30;73.89;99400.47;4990030;28;2792;-74
2023/09/23 06:58:35;;;;;;;;;;;;;;;13.31;74.29;99401.25;4994098;28;2429;-75
2023/09/23 07:01:28;;;;;;;;;;;;;;;13.30;74.10;99402.34;4991833;28;2787;-78
2023/09/23 07:04:19;;;;;;;;;;;;;;;13.30;74.05;99402.34;4983569;28;2450;-77
2023/09/23 07:07:12;;;;;;;;;;;;;;;13.29;74.00;99403.41;4983823;28;3511;-75
2023/09/23 07:10:04;;;;;;;;;;;;;;;13.29;73.98;99406.13;4978116;28;2599;-75
2023/09/23 07:12:55;;;;;;;;;;;;;;;13.28;74.02;99407.22;4978490;28;3113;-75
2023/09/23 07:15:47;;;;;;;;;;;;;;;13.28;73.92;99404.50;4978985;28;2627;-76
2023/09/23 07:18:39;;;;;;;;;;;;;;;13.27;74.14;99409.09;4982905;28;2465;-76
2023/09/23 07:21:31;;;;;;;;;;;;;;;13.27;74.04;99397.47;4989078;28;2484;-75
2023/09/23 07:24:26;;;;;;;;;;;;;;;13.26;73.99;99402.03;4986930;28;2537;-77
2023/09/23 07:27:17;;;;;;;;;;;;;;;13.27;74.16;99397.47;4980503;28;3149;-75
2023/09/23 07:30:08;;;;;;;;;;;;;;;13.25;74.07;99397.72;4977510;28;2460;-75
2023/09/23 07:33:00;;;;;;;;;;;;;;;13.25;73.75;99395.03;4987029;28;2529;-76
2023/09/23 07:35:53;;;;;;;;;;;;;;;13.24;74.00;99393.38;4994367;28;3244;-76
2023/09/23 07:38:44;;;;;;;;;;;;;;;13.24;74.08;99395.28;4984974;28;2518;-75
2023/09/23 07:41:35;;;;;;;;;;;;;;;13.24;73.95;99403.38;4979832;28;2588;-77
2023/09/23 07:44:27;;;;;;;;;;;;;;;13.23;74.02;99399.84;4984473;28;2366;-76
2023/09/23 07:47:18;;;;;;;;;;;;;;;13.24;73.90;99408.78;4990194;28;2894;-76
2023/09/23 07:50:11;;;;;;;;;;;;;;;13.22;73.99;99414.44;4989111;28;2784;-75
2023/09/23 07:53:02;;;;;;;;;;;;;;;13.23;73.96;99417.97;4989726;28;2534;-76
2023/09/23 07:55:54;;;;;;;;;;;;;;;13.22;73.97;99429.88;4988227;28;2808;-76
2023/09/23 07:58:46;;;;;;;;;;;;;;;13.21;74.07;99426.34;4981101;28;2613;-75
2023/09/23 08:01:38;;;;;;;;;;;;;;;13.21;74.16;99426.34;4990451;28;2467;-76
2023/09/23 08:04:30;;;;;;;;;;;;;;;13.21;74.17;99433.63;4989125;28;2215;-76
2023/09/23 08:07:22;;;;;;;;;;;;;;;13.21;74.17;99442.56;4989414;28;2544;-76
2023/09/23 08:10:14;;;;;;;;;;;;;;;13.21;74.17;99433.63;4986816;28;2860;-76
2023/09/23 08:13:05;;;;;;;;;;;;;;;13.21;74.10;99433.63;4991860;28;2642;-75
2023/09/23 08:15:57;;;;;;;;;;;;;;;13.21;74.00;99433.63;4985971;28;2453;-75
2023/09/23 08:18:49;;;;;;;;;;;;;;;13.19;74.04;99437.41;4980976;28;2770;-76
2023/09/23 08:21:41;;;;;;;;;;;;;;;13.19;74.03;99437.41;4982065;28;3594;-75
2023/09/23 08:24:33;;;;;;;;;;;;;;;13.18;74.10;99449.31;4989281;28;2432;-76
2023/09/23 08:27:27;;;;;;;;;;;;;;;13.20;74.05;99454.44;4989743;28;2645;-75
2023/09/23 08:30:18;;;;;;;;;;;;;;;13.17;74.03;99455.78;4989707;28;2699;-75
2023/09/23 08:33:12;;;;;;;;;;;;;;;13.18;73.95;99456.63;4987905;28;2694;-75
2023/09/23 08:36:03;;;;;;;;;;;;;;;13.19;73.92;99460.94;4991756;28;2443;-74
2023/09/23 08:38:54;;;;;;;;;;;;;;;13.17;73.91;99461.19;4995434;28;2469;-75
2023/09/23 08:41:46;;;;;;;;;;;;;;;13.17;74.14;99463.91;4995502;28;2470;-74
2023/09/23 08:44:38;;;;;;;;;;;;;;;13.18;74.00;99468.25;4993194;28;3097;-74
2023/09/23 08:47:30;;;;;;;;;;;;;;;13.17;74.03;99469.31;5002596;28;2547;-75
2023/09/23 08:50:23;;;;;;;;;;;;;;;13.17;74.23;99473.91;4994548;28;4094;-77
2023/09/23 08:53:14;;;;;;;;;;;;;;;13.18;74.11;99470.13;4992402;28;2578;-76
2023/09/23 08:56:07;;;;;;;;;;;;;;;12.79;74.14;99418.28;4989364;28;3011;-76
2023/09/23 08:58:59;;;;;;;;;;;;;;;13.16;74.26;99470.38;4985123;28;2514;-76
2023/09/23 09:01:50;;;;;;;;;;;;;;;13.17;74.20;99473.91;4992665;28;2553;-75
2023/09/23 09:04:42;;;;;;;;;;;;;;;13.18;74.20;99476.34;5002632;28;2693;-76
2023/09/23 09:07:34;;;;;;;;;;;;;;;13.17;74.17;99474.72;4995046;28;2692;-75
2023/09/23 09:10:26;;;;;;;;;;;;;;;13.17;74.01;99471.19;4994410;28;2530;-75
2023/09/23 09:13:18;;;;;;;;;;;;;;;13.17;74.19;99466.59;4986478;28;3215;-76
2023/09/23 09:16:10;;;;;;;;;;;;;;;13.16;74.10;99470.38;4987035;28;2737;-74
2023/09/23 09:19:02;;;;;;;;;;;;;;;13.16;74.11;99464.97;4988295;28;2563;-76
2023/09/23 09:21:55;;;;;;;;;;;;;;;13.17;74.28;99469.31;4995765;28;2455;-74
2023/09/23 09:24:47;;;;;;;;;;;;;;;13.17;74.24;99469.31;4989339;28;2687;-74
2023/09/23 09:27:39;;;;;;;;;;;;;;;13.17;74.04;99465.78;4989199;28;2686;-75
2023/09/23 09:30:31;;;;;;;;;;;;;;;13.16;74.36;99467.69;4992419;28;4085;-75
2023/09/23 09:33:23;;;;;;;;;;;;;;;13.17;74.13;99466.59;4986976;28;2671;-75
2023/09/23 09:36:17;;;;;;;;;;;;;;;13.17;74.18;99463.91;4988429;28;2588;-78
2023/09/23 09:39:10;;;;;;;;;;;;;;;13.16;74.23;99462.28;4975632;28;3896;-77
2023/09/23 09:42:02;;;;;;;;;;;;;;;13.18;74.36;99467.44;4987999;28;3033;-76
2023/09/23 09:44:55;;;;;;;;;;;;;;;13.17;74.35;99466.59;4986955;28;3288;-77
2023/09/23 09:47:47;;;;;;;;;;;;;;;13.18;74.43;99453.91;4986813;28;2870;-75
2023/09/23 09:50:38;;;;;;;;;;;;;;;13.18;74.30;99453.91;4999349;28;4538;-76
2023/09/23 09:53:30;;;;;;;;;;;;;;;13.19;74.34;99458.25;4993745;28;2529;-76
2023/09/23 09:56:24;;;;;;;;;;;;;;;13.19;74.38;99460.94;4991336;28;4366;-77
2023/09/23 09:59:16;;;;;;;;;;;;;;;13.18;74.40;99457.44;4998615;28;3129;-76
2023/09/23 10:02:07;;;;;;;;;;;;;;;13.18;74.43;99459.31;4977949;28;4396;-77
2023/09/23 10:04:59;;;;;;;;;;;;;;;13.19;74.26;99461.75;4997008;28;3389;-77
2023/09/23 10:07:51;;;;;;;;;;;;;;;13.19;74.49;99461.75;4990145;28;4396;-76
2023/09/23 10:10:46;;;;;;;;;;;;;;;13.19;74.22;99464.44;4981399;28;4322;-75
2023/09/23 10:13:37;;;;;;;;;;;;;;;13.20;74.32;99465.25;4983402;28;3236;-77
2023/09/23 10:16:30;;;;;;;;;;;;;;;13.19;74.47;99450.94;4987182;28;2815;-75
2023/09/23 10:19:24;;;;;;;;;;;;;;;13.21;74.35;99464.19;4989286;28;2803;-76
2023/09/23 10:22:18;;;;;;;;;;;;;;;13.21;74.23;99464.19;4981769;28;3990;-76
2023/09/23 10:25:12;;;;;;;;;;;;;;;13.21;74.28;99466.91;4987158;28;2708;-76
2023/09/23 10:28:03;;;;;;;;;;;;;;;13.22;74.49;99460.41;5003360;28;2561;-76
2023/09/23 10:30:56;;;;;;;;;;;;;;;13.22;74.58;99462.31;4979955;28;4258;-76
2023/09/23 10:33:47;;;;;;;;;;;;;;;13.22;74.21;99460.41;4983861;28;4282;-76
2023/09/23 10:36:39;;;;;;;;;;;;;;;13.22;74.37;99463.13;4988809;28;2560;-75
2023/09/23 10:39:32;;;;;;;;;;;;;;;13.23;74.36;99469.34;4985823;28;4467;-74
2023/09/23 10:42:25;;;;;;;;;;;;;;;13.24;74.67;99473.69;4997248;28;2584;-75
2023/09/23 10:45:17;;;;;;;;;;;;;;;13.23;74.58;99480.97;4984842;28;4134;-76
2023/09/23 10:48:09;;;;;;;;;;;;;;;13.24;74.46;99474.50;4998436;28;1695;-76
2023/09/23 10:51:01;;;;;;;;;;;;;;;13.25;74.66;99480.72;4992633;28;2388;-76
2023/09/23 10:53:54;;;;;;;;;;;;;;;13.26;74.64;99483.16;4994376;28;2767;-77
2023/09/23 10:56:45;;;;;;;;;;;;;;;13.26;74.47;99480.47;4983958;28;4141;-75
2023/09/23 10:59:38;;;;;;;;;;;;;;;13.26;74.61;99490.47;4999263;28;3325;-75
2023/09/23 11:02:29;;;;;;;;;;;;;;;13.26;74.54;99487.75;4977881;28;4733;-74
2023/09/23 11:05:21;;;;;;;;;;;;;;;13.25;74.61;99483.41;4988343;28;2976;-74
2023/09/23 11:08:14;;;;;;;;;;;;;;;13.27;74.62;99494.81;4986109;28;2420;-75
2023/09/23 11:11:05;;;;;;;;;;;;;;;13.27;74.79;99489.41;4980011;28;5001;-75
2023/09/23 11:13:57;;;;;;;;;;;;;;;13.27;74.49;99494.81;4998053;28;2364;-75
2023/09/23 11:16:49;;;;;;;;;;;;;;;13.28;74.75;99496.44;4978858;28;5265;-76
2023/09/23 11:19:41;;;;;;;;;;;;;;;13.27;74.75;99492.91;4996095;28;2905;-75
2023/09/23 11:22:33;;;;;;;;;;;;;;;13.27;74.67;99495.63;4996083;28;4161;-76
2023/09/23 11:25:25;;;;;;;;;;;;;;;13.28;74.85;99491.84;4996196;28;2217;-76
2023/09/23 11:28:17;;;;;;;;;;;;;;;13.28;74.86;99505.34;4997670;28;2417;-76
2023/09/23 11:31:09;;;;;;;;;;;;;;;13.30;74.68;99502.41;4992694;28;2379;-76
2023/09/23 11:34:01;;;;;;;;;;;;;;;13.30;74.79;99505.91;4996152;28;2555;-77
2023/09/23 11:36:53;;;;;;;;;;;;;;;13.29;74.81;99517.78;4989821;28;3061;-78
2023/09/23 11:39:45;;;;;;;;;;;;;;;13.29;74.95;99517.78;4982841;28;5826;-77
2023/09/23 11:42:37;;;;;;;;;;;;;;;13.30;74.98;99519.44;4995076;28;2507;-77
2023/09/23 11:45:29;;;;;;;;;;;;;;;13.30;74.93;99519.44;4998041;28;3947;-77
2023/09/23 11:48:21;;;;;;;;;;;;;;;13.31;74.83;99523.75;5000769;28;2462;-77
2023/09/23 11:51:13;;;;;;;;;;;;;;;13.32;74.85;99524.56;4996053;28;2477;-78
2023/09/23 11:54:05;;;;;;;;;;;;;;;13.32;75.02;99522.66;4999189;28;2443;-76
2023/09/23 11:56:56;;;;;;;;;;;;;;;13.32;75.05;99516.44;4988897;28;2707;-76
2023/09/23 11:59:47;;;;;;;;;;;;;;;13.34;74.80;99522.41;4991878;28;2471;-74
2023/09/23 12:02:40;;;;;;;;;;;;;;;13.34;74.98;99528.63;4988771;28;2761;-75
2023/09/23 12:05:32;;;;;;;;;;;;;;;13.34;74.88;99528.63;4993668;28;2767;-74
2023/09/23 12:08:23;;;;;;;;;;;;;;;13.36;74.92;99529.19;4987932;28;2503;-76
2023/09/23 12:11:15;;;;;;;;;;;;;;;13.37;74.87;99538.13;4996055;28;2510;-78
2023/09/23 12:14:08;;;;;;;;;;;;;;;13.37;75.02;99541.63;4989710;28;2514;-75
2023/09/23 12:17:01;;;;;;;;;;;;;;;13.37;75.11;99538.94;4985553;28;3216;-77
2023/09/23 12:19:52;;;;;;;;;;;;;;;13.38;75.05;99539.75;4992536;28;2435;-76
2023/09/23 12:22:45;;;;;;;;;;;;;;;13.38;75.14;99537.03;4995383;28;2480;-77
2023/09/23 12:25:37;;;;;;;;;;;;;;;13.38;75.12;99547.84;4990046;28;2611;-75
2023/09/23 12:28:29;;;;;;;;;;;;;;;13.38;75.07;99542.44;4991643;28;2470;-77
2023/09/23 12:31:20;;;;;;;;;;;;;;;13.39;75.02;99542.19;4999223;28;2435;-76
2023/09/23 12:34:12;;;;;;;;;;;;;;;13.40;74.97;99545.72;4997780;28;2359;-76
2023/09/23 12:37:04;;;;;;;;;;;;;;;13.40;75.20;99545.72;5003158;28;2369;-76
2023/09/23 12:39:56;;;;;;;;;;;;;;;13.42;75.17;99540.84;5001332;28;2417;-76
2023/09/23 12:42:47;;;;;;;;;;;;;;;13.42;75.10;99538.16;4994718;28;2636;-75
2023/09/23 12:45:41;;;;;;;;;;;;;;;13.42;75.10;99548.16;5002536;28;2227;-76
2023/09/23 12:48:32;;;;;;;;;;;;;;;13.42;74.96;99540.84;5001210;28;1160;-78
2023/09/23 12:51:25;;;;;;;;;;;;;;;13.43;75.23;99547.06;4994540;28;2507;-76
2023/09/23 12:54:16;;;;;;;;;;;;;;;13.44;75.04;99540.56;5002975;28;2450;-75
2023/09/23 12:57:09;;;;;;;;;;;;;;;13.44;75.14;99544.09;5001585;28;2300;-75
2023/09/23 13:00:01;;;;;;;;;;;;;;;13.45;75.31;99550.34;4999790;28;2416;-76
2023/09/23 13:02:53;;;;;;;;;;;;;;;13.47;75.16;99548.16;4994535;28;2442;-76
2023/09/23 13:05:44;;;;;;;;;;;;;;;13.46;75.42;99541.94;4995125;28;2335;-76
2023/09/23 13:08:35;;;;;;;;;;;;;;;13.47;75.17;99554.41;4987447;28;2456;-77
2023/09/23 13:11:28;;;;;;;;;;;;;;;13.49;75.28;99548.72;4978136;28;2520;-76
2023/09/23 13:14:21;;;;;;;;;;;;;;;13.50;75.36;99553.88;4969783;28;3055;-76
2023/09/23 13:17:12;;;;;;;;;;;;;;;13.50;75.24;99555.75;4972095;28;2513;-75
2023/09/23 13:20:05;;;;;;;;;;;;;;;13.51;75.44;99546.59;4971889;28;2586;-77
2023/09/23 13:22:56;;;;;;;;;;;;;;;13.51;75.42;99549.28;4982622;28;2716;-77
2023/09/23 13:25:49;;;;;;;;;;;;;;;13.52;75.44;99554.41;5001644;28;3277;-76
2023/09/23 13:28:41;;;;;;;;;;;;;;;13.53;75.47;99550.66;5000746;28;2708;-76
2023/09/23 13:31:33;;;;;;;;;;;;;;;13.53;75.49;99564.19;4992338;28;2570;-75
2023/09/23 13:34:25;;;;;;;;;;;;;;;13.54;75.52;99563.09;4997011;28;2076;-75
2023/09/23 13:37:18;;;;;;;;;;;;;;;13.55;75.40;99564.72;5003645;28;1007;-75
2023/09/23 13:40:10;;;;;;;;;;;;;;;13.55;75.55;99572.81;5005269;28;2582;-75
2023/09/23 13:43:02;;;;;;;;;;;;;;;13.57;75.43;99570.69;4987143;28;2646;-76
2023/09/23 13:45:54;;;;;;;;;;;;;;;13.57;75.33;99565.28;4979481;28;2483;-76
2023/09/23 13:48:46;;;;;;;;;;;;;;;13.59;75.45;99570.44;5003221;28;2331;-75
2023/09/23 13:51:39;;;;;;;;;;;;;;;13.59;75.41;99563.13;5005950;28;1167;-75
2023/09/23 13:54:30;;;;;;;;;;;;;;;13.59;75.64;99567.72;4996111;28;2175;-75
2023/09/23 13:57:23;;;;;;;;;;;;;;;13.60;75.64;99566.63;5001184;28;1734;-76
2023/09/23 14:00:14;;;;;;;;;;;;;;;13.60;75.42;99569.34;5002609;28;2248;-76
2023/09/23 14:03:06;;;;;;;;;;;;;;;13.62;75.52;99572.63;4994381;28;5217;-75
2023/09/23 14:05:58;;;;;;;;;;;;;;;13.63;75.48;99574.22;5008340;28;2231;-76
2023/09/23 14:08:51;;;;;;;;;;;;;;;13.74;73.13;99575.09;4971636;28;4848;-76
2023/09/23 14:11:43;;;;;;;;;;;;;;;13.79;75.37;99580.50;4978128;28;2408;-76
2023/09/23 14:14:36;;;;;;;;;;;;;;;13.71;75.50;99576.44;4978815;28;2324;-75
2023/09/23 14:17:28;;;;;;;;;;;;;;;13.70;75.59;99582.09;4977295;28;5268;-76
2023/09/23 14:20:21;;;;;;;;;;;;;;;13.70;75.49;99582.09;4991846;28;3685;-75
2023/09/23 14:23:12;;;;;;;;;;;;;;;13.71;75.52;99586.44;4982725;28;5561;-75
2023/09/23 14:26:06;;;;;;;;;;;;;;;13.70;75.43;99590.22;4969611;28;3991;-75
2023/09/23 14:28:58;;;;;;;;;;;;;;;13.70;75.45;99585.63;4972604;28;3983;-74
2023/09/23 14:31:50;;;;;;;;;;;;;;;13.70;75.54;99590.22;4970136;28;2509;-77
2023/09/23 14:34:41;;;;;;;;;;;;;;;13.72;75.59;99588.06;4971132;28;3055;-76
2023/09/23 14:37:34;;;;;;;;;;;;;;;13.73;75.62;99595.09;4977244;28;2468;-75
2023/09/23 14:40:27;;;;;;;;;;;;;;;13.73;75.46;99589.69;4968992;28;2977;-77
2023/09/23 14:43:18;;;;;;;;;;;;;;;13.73;75.67;99585.09;4977247;28;4402;-75
2023/09/23 14:46:10;;;;;;;;;;;;;;;13.74;75.67;99591.34;4971429;28;3075;-75
2023/09/23 14:49:03;;;;;;;;;;;;;;;13.75;75.79;99590.25;4972890;28;3253;-75
2023/09/23 14:51:54;;;;;;;;;;;;;;;13.76;75.76;99602.69;4981798;28;2716;-75
2023/09/23 14:54:45;;;;;;;;;;;;;;;13.75;75.71;99599.16;4972088;28;2759;-75
2023/09/23 14:57:37;;;;;;;;;;;;;;;13.76;75.70;99608.09;4972288;28;2476;-75
2023/09/23 15:00:28;;;;;;;;;;;;;;;13.79;75.96;99612.97;4989048;28;2681;-76
2023/09/23 15:03:20;;;;;;;;;;;;;;;13.79;75.88;99612.97;5004918;28;2138;-76
2023/09/23 15:06:12;;;;;;;;;;;;;;;13.80;76.00;99609.22;5000583;28;2296;-74
2023/09/23 15:09:04;;;;;;;;;;;;;;;13.80;75.85;99610.03;5006013;28;1197;-74